sensor_id;sensor_type;location;lat;lon;timestamp;temperature;humidity
75784;DHT22;64565;44.752;37.674;2022-10-28T00:06:02;12.03;93.80
75784;DHT22;64565;44.752;37.674;2022-10-28T00:15:07;11.93;94.55
75784;DHT22;64565;44.752;37.674;2022-10-28T00:17:56;11.92;94.65
75784;DHT22;64565;44.752;37.674;2022-10-28T00:20:45;11.87;94.85
75784;DHT22;64565;44.752;37.674;2022-10-28T00:23:52;11.82;95.17
75784;DHT22;64565;44.752;37.674;2022-10-28T00:26:42;11.73;95.49
75784;DHT22;64565;44.752;37.674;2022-10-28T00:36:15;11.55;96.49
75784;DHT22;64565;44.752;37.674;2022-10-28T00:39:11;11.52;96.67
75784;DHT22;64565;44.752;37.674;2022-10-28T00:42:00;11.48;96.94
75784;DHT22;64565;44.752;37.674;2022-10-28T00:48:47;11.44;97.34
75784;DHT22;64565;44.752;37.674;2022-10-28T00:54:55;11.44;97.62
75784;DHT22;64565;44.752;37.674;2022-10-28T00:57:51;11.48;97.94
75784;DHT22;64565;44.752;37.674;2022-10-28T01:01:02;11.53;97.89
75784;DHT22;64565;44.752;37.674;2022-10-28T01:03:46;11.52;97.78
75784;DHT22;64565;44.752;37.674;2022-10-28T01:06:36;11.51;97.45
75784;DHT22;64565;44.752;37.674;2022-10-28T01:09:27;11.51;97.15
75784;DHT22;64565;44.752;37.674;2022-10-28T01:18:59;11.52;97.23
75784;DHT22;64565;44.752;37.674;2022-10-28T01:22:06;11.54;97.45
75784;DHT22;64565;44.752;37.674;2022-10-28T01:25:22;11.59;97.24
75784;DHT22;64565;44.752;37.674;2022-10-28T01:48:20;11.22;97.57
75784;DHT22;64565;44.752;37.674;2022-10-28T01:51:47;11.17;97.94
75784;DHT22;64565;44.752;37.674;2022-10-28T01:54:54;11.14;98.19
75784;DHT22;64565;44.752;37.674;2022-10-28T02:01:06;11.14;98.16
75784;DHT22;64565;44.752;37.674;2022-10-28T02:06:54;11.14;98.30
75784;DHT22;64565;44.752;37.674;2022-10-28T02:10:02;11.16;98.30
75784;DHT22;64565;44.752;37.674;2022-10-28T02:13:00;11.14;98.42
75784;DHT22;64565;44.752;37.674;2022-10-28T02:16:05;11.11;98.36
75784;DHT22;64565;44.752;37.674;2022-10-28T02:19:12;11.10;98.33
75784;DHT22;64565;44.752;37.674;2022-10-28T02:25:24;11.07;98.27
75784;DHT22;64565;44.752;37.674;2022-10-28T02:34:48;10.98;97.64
75784;DHT22;64565;44.752;37.674;2022-10-28T02:37:45;10.99;97.56
75784;DHT22;64565;44.752;37.674;2022-10-28T02:40:36;10.95;97.30
75784;DHT22;64565;44.752;37.674;2022-10-28T02:43:22;10.93;97.34
75784;DHT22;64565;44.752;37.674;2022-10-28T02:46:17;10.94;97.31
75784;DHT22;64565;44.752;37.674;2022-10-28T02:49:23;10.93;97.42
75784;DHT22;64565;44.752;37.674;2022-10-28T03:01:47;11.07;96.63
75784;DHT22;64565;44.752;37.674;2022-10-28T03:04:37;11.10;96.67
75784;DHT22;64565;44.752;37.674;2022-10-28T03:17:28;11.03;96.04
75784;DHT22;64565;44.752;37.674;2022-10-28T03:26:49;10.96;96.69
75784;DHT22;64565;44.752;37.674;2022-10-28T03:32:45;11.00;96.73
75784;DHT22;64565;44.752;37.674;2022-10-28T03:35:13;11.03;96.91
75784;DHT22;64565;44.752;37.674;2022-10-28T03:37:42;11.07;96.27
75784;DHT22;64565;44.752;37.674;2022-10-28T03:40:13;11.07;95.91
75784;DHT22;64565;44.752;37.674;2022-10-28T03:43:02;11.11;95.53
75784;DHT22;64565;44.752;37.674;2022-10-28T03:45:51;11.10;95.17
75784;DHT22;64565;44.752;37.674;2022-10-28T03:48:39;11.09;94.91
75784;DHT22;64565;44.752;37.674;2022-10-28T03:51:28;11.12;95.07
75784;DHT22;64565;44.752;37.674;2022-10-28T03:54:20;11.10;95.09
75784;DHT22;64565;44.752;37.674;2022-10-28T03:57:15;11.07;95.21
75784;DHT22;64565;44.752;37.674;2022-10-28T04:00:04;11.04;95.31
75784;DHT22;64565;44.752;37.674;2022-10-28T04:02:53;11.08;95.06
75784;DHT22;64565;44.752;37.674;2022-10-28T04:05:42;11.11;95.16
75784;DHT22;64565;44.752;37.674;2022-10-28T04:08:31;11.14;95.11
75784;DHT22;64565;44.752;37.674;2022-10-28T04:11:20;11.17;95.09
75784;DHT22;64565;44.752;37.674;2022-10-28T04:14:09;11.20;95.22
75784;DHT22;64565;44.752;37.674;2022-10-28T04:16:58;11.23;95.10
75784;DHT22;64565;44.752;37.674;2022-10-28T04:19:51;11.31;95.31
75784;DHT22;64565;44.752;37.674;2022-10-28T04:22:56;11.34;95.07
75784;DHT22;64565;44.752;37.674;2022-10-28T04:26:32;11.39;94.97
75784;DHT22;64565;44.752;37.674;2022-10-28T04:29:31;11.42;94.74
75784;DHT22;64565;44.752;37.674;2022-10-28T04:32:21;11.45;94.75
75784;DHT22;64565;44.752;37.674;2022-10-28T04:38:16;11.58;94.57
75784;DHT22;64565;44.752;37.674;2022-10-28T04:41:02;11.62;94.62
75784;DHT22;64565;44.752;37.674;2022-10-28T04:50:02;11.68;94.41
75784;DHT22;64565;44.752;37.674;2022-10-28T04:52:53;11.74;94.27
75784;DHT22;64565;44.752;37.674;2022-10-28T04:55:41;11.78;93.95
75784;DHT22;64565;44.752;37.674;2022-10-28T04:58:31;11.83;94.00
75784;DHT22;64565;44.752;37.674;2022-10-28T05:01:20;11.87;93.66
75784;DHT22;64565;44.752;37.674;2022-10-28T05:04:09;11.91;93.49
75784;DHT22;64565;44.752;37.674;2022-10-28T05:06:59;11.96;93.33
75784;DHT22;64565;44.752;37.674;2022-10-28T05:09:48;12.02;93.40
75784;DHT22;64565;44.752;37.674;2022-10-28T05:12:40;12.10;92.94
75784;DHT22;64565;44.752;37.674;2022-10-28T05:15:29;12.18;92.74
75784;DHT22;64565;44.752;37.674;2022-10-28T05:18:18;12.26;92.46
75784;DHT22;64565;44.752;37.674;2022-10-28T05:21:07;12.31;91.87
75784;DHT22;64565;44.752;37.674;2022-10-28T05:23:56;12.36;91.46
75784;DHT22;64565;44.752;37.674;2022-10-28T05:26:46;12.44;91.07
75784;DHT22;64565;44.752;37.674;2022-10-28T05:29:35;12.55;90.50
75784;DHT22;64565;44.752;37.674;2022-10-28T05:32:24;12.59;90.41
75784;DHT22;64565;44.752;37.674;2022-10-28T05:35:13;12.67;90.02
75784;DHT22;64565;44.752;37.674;2022-10-28T05:38:04;12.73;89.79
75784;DHT22;64565;44.752;37.674;2022-10-28T05:40:53;12.82;89.54
75784;DHT22;64565;44.752;37.674;2022-10-28T05:43:45;12.80;88.74
75784;DHT22;64565;44.752;37.674;2022-10-28T05:46:33;12.93;88.54
75784;DHT22;64565;44.752;37.674;2022-10-28T05:49:22;12.99;88.59
75784;DHT22;64565;44.752;37.674;2022-10-28T05:52:13;13.08;87.34
75784;DHT22;64565;44.752;37.674;2022-10-28T05:55:01;13.12;87.38
75784;DHT22;64565;44.752;37.674;2022-10-28T05:57:52;13.20;86.87
75784;DHT22;64565;44.752;37.674;2022-10-28T06:00:44;13.27;86.26
75784;DHT22;64565;44.752;37.674;2022-10-28T06:06:55;13.33;86.24
75784;DHT22;64565;44.752;37.674;2022-10-28T06:09:47;13.31;86.06
75784;DHT22;64565;44.752;37.674;2022-10-28T06:12:38;13.29;85.42
75784;DHT22;64565;44.752;37.674;2022-10-28T06:15:26;13.38;85.64
75784;DHT22;64565;44.752;37.674;2022-10-28T06:18:15;13.43;85.34
75784;DHT22;64565;44.752;37.674;2022-10-28T06:21:04;13.48;84.76
75784;DHT22;64565;44.752;37.674;2022-10-28T06:23:50;13.51;85.05
75784;DHT22;64565;44.752;37.674;2022-10-28T06:33:21;13.61;85.27
75784;DHT22;64565;44.752;37.674;2022-10-28T06:36:10;13.60;85.02
75784;DHT22;64565;44.752;37.674;2022-10-28T06:39:00;13.63;85.51
75784;DHT22;64565;44.752;37.674;2022-10-28T06:41:51;13.70;84.75
75784;DHT22;64565;44.752;37.674;2022-10-28T06:44:40;13.77;84.89
75784;DHT22;64565;44.752;37.674;2022-10-28T06:47:38;13.82;84.90
75784;DHT22;64565;44.752;37.674;2022-10-28T06:50:54;13.94;84.00
75784;DHT22;64565;44.752;37.674;2022-10-28T06:53:51;14.06;84.44
75784;DHT22;64565;44.752;37.674;2022-10-28T06:56:40;14.24;82.89
75784;DHT22;64565;44.752;37.674;2022-10-28T06:59:32;14.44;82.28
75784;DHT22;64565;44.752;37.674;2022-10-28T07:02:23;14.70;80.75
75784;DHT22;64565;44.752;37.674;2022-10-28T07:05:13;14.82;80.88
75784;DHT22;64565;44.752;37.674;2022-10-28T07:08:02;14.89;79.61
75784;DHT22;64565;44.752;37.674;2022-10-28T07:10:57;14.98;79.63
75784;DHT22;64565;44.752;37.674;2022-10-28T07:13:48;14.98;78.95
75784;DHT22;64565;44.752;37.674;2022-10-28T07:16:37;15.09;78.31
75784;DHT22;64565;44.752;37.674;2022-10-28T07:19:26;15.21;80.49
75784;DHT22;64565;44.752;37.674;2022-10-28T07:22:15;15.33;80.94
75784;DHT22;64565;44.752;37.674;2022-10-28T07:25:04;15.51;79.46
75784;DHT22;64565;44.752;37.674;2022-10-28T07:27:53;15.60;77.24
75784;DHT22;64565;44.752;37.674;2022-10-28T07:30:44;15.68;76.10
75784;DHT22;64565;44.752;37.674;2022-10-28T07:33:43;15.88;76.44
75784;DHT22;64565;44.752;37.674;2022-10-28T07:36:33;16.01;77.21
75784;DHT22;64565;44.752;37.674;2022-10-28T07:39:25;16.05;76.24
75784;DHT22;64565;44.752;37.674;2022-10-28T07:42:14;16.21;75.09
75784;DHT22;64565;44.752;37.674;2022-10-28T07:44:42;16.26;74.54
75784;DHT22;64565;44.752;37.674;2022-10-28T07:47:31;16.40;73.28
75784;DHT22;64565;44.752;37.674;2022-10-28T07:50:20;16.61;73.66
75784;DHT22;64565;44.752;37.674;2022-10-28T07:53:09;16.71;71.92
75784;DHT22;64565;44.752;37.674;2022-10-28T07:56:01;16.91;72.12
75784;DHT22;64565;44.752;37.674;2022-10-28T07:58:52;16.93;70.45
75784;DHT22;64565;44.752;37.674;2022-10-28T08:02:20;17.03;70.10
75784;DHT22;64565;44.752;37.674;2022-10-28T08:05:12;17.15;68.86
75784;DHT22;64565;44.752;37.674;2022-10-28T08:11:15;17.25;67.78
75784;DHT22;64565;44.752;37.674;2022-10-28T08:17:09;17.61;68.49
75784;DHT22;64565;44.752;37.674;2022-10-28T08:20:01;17.63;65.85
75784;DHT22;64565;44.752;37.674;2022-10-28T08:23:00;17.69;66.75
75784;DHT22;64565;44.752;37.674;2022-10-28T08:25:54;17.75;66.72
75784;DHT22;64565;44.752;37.674;2022-10-28T08:28:44;17.85;65.76
75784;DHT22;64565;44.752;37.674;2022-10-28T08:31:47;17.90;64.55
75784;DHT22;64565;44.752;37.674;2022-10-28T08:45:19;18.86;61.62
75784;DHT22;64565;44.752;37.674;2022-10-28T08:48:19;18.74;61.54
75784;DHT22;64565;44.752;37.674;2022-10-28T08:54:48;18.70;62.30
75784;DHT22;64565;44.752;37.674;2022-10-28T08:57:44;18.68;62.43
75784;DHT22;64565;44.752;37.674;2022-10-28T09:00:35;18.79;61.59
75784;DHT22;64565;44.752;37.674;2022-10-28T09:03:36;18.88;62.13
75784;DHT22;64565;44.752;37.674;2022-10-28T09:06:29;18.65;62.14
75784;DHT22;64565;44.752;37.674;2022-10-28T09:09:20;18.50;63.05
75784;DHT22;64565;44.752;37.674;2022-10-28T09:12:37;18.33;64.33
75784;DHT22;64565;44.752;37.674;2022-10-28T09:30:59;19.40;58.32
75784;DHT22;64565;44.752;37.674;2022-10-28T09:34:05;19.28;58.96
75784;DHT22;64565;44.752;37.674;2022-10-28T09:37:34;18.92;58.10
75784;DHT22;64565;44.752;37.674;2022-10-28T09:40:27;18.39;60.71
75784;DHT22;64565;44.752;37.674;2022-10-28T09:46:17;17.60;63.44
75784;DHT22;64565;44.752;37.674;2022-10-28T09:49:17;17.22;64.78
75784;DHT22;64565;44.752;37.674;2022-10-28T09:52:15;17.07;65.35
75784;DHT22;64565;44.752;37.674;2022-10-28T09:58:18;16.70;67.70
75784;DHT22;64565;44.752;37.674;2022-10-28T10:01:17;16.59;69.36
75784;DHT22;64565;44.752;37.674;2022-10-28T10:04:24;16.47;70.15
75784;DHT22;64565;44.752;37.674;2022-10-28T10:07:11;16.39;70.21
75784;DHT22;64565;44.752;37.674;2022-10-28T10:10:09;16.24;71.92
75784;DHT22;64565;44.752;37.674;2022-10-28T10:13:02;15.80;75.12
75784;DHT22;64565;44.752;37.674;2022-10-28T10:15:56;15.60;75.41
75784;DHT22;64565;44.752;37.674;2022-10-28T10:18:52;15.51;76.48
75784;DHT22;64565;44.752;37.674;2022-10-28T10:24:33;15.34;76.66
75784;DHT22;64565;44.752;37.674;2022-10-28T10:27:24;15.42;75.72
75784;DHT22;64565;44.752;37.674;2022-10-28T10:30:23;15.45;75.67
75784;DHT22;64565;44.752;37.674;2022-10-28T10:33:18;15.29;74.14
75784;DHT22;64565;44.752;37.674;2022-10-28T10:38:59;15.08;74.64
75784;DHT22;64565;44.752;37.674;2022-10-28T10:41:48;14.92;72.19
75784;DHT22;64565;44.752;37.674;2022-10-28T10:44:37;14.86;74.35
75784;DHT22;64565;44.752;37.674;2022-10-28T10:47:27;14.75;73.55
75784;DHT22;64565;44.752;37.674;2022-10-28T10:50:28;14.72;70.78
75784;DHT22;64565;44.752;37.674;2022-10-28T10:53:30;14.77;73.08
75784;DHT22;64565;44.752;37.674;2022-10-28T10:56:24;14.74;71.06
75784;DHT22;64565;44.752;37.674;2022-10-28T10:59:19;14.84;71.72
75784;DHT22;64565;44.752;37.674;2022-10-28T11:05:21;15.04;73.43
75784;DHT22;64565;44.752;37.674;2022-10-28T11:08:04;15.21;73.54
75784;DHT22;64565;44.752;37.674;2022-10-28T11:11:17;15.34;71.74
75784;DHT22;64565;44.752;37.674;2022-10-28T11:14:17;15.51;74.13
75784;DHT22;64565;44.752;37.674;2022-10-28T11:20:25;15.68;72.48
75784;DHT22;64565;44.752;37.674;2022-10-28T11:26:41;15.92;71.43
75784;DHT22;64565;44.752;37.674;2022-10-28T11:29:32;16.11;70.47
75784;DHT22;64565;44.752;37.674;2022-10-28T11:44:28;15.73;72.74
75784;DHT22;64565;44.752;37.674;2022-10-28T11:47:49;15.58;74.47
75784;DHT22;64565;44.752;37.674;2022-10-28T11:51:04;15.43;75.52
75784;DHT22;64565;44.752;37.674;2022-10-28T12:00:29;15.30;74.90
75784;DHT22;64565;44.752;37.674;2022-10-28T12:03:38;15.24;75.95
75784;DHT22;64565;44.752;37.674;2022-10-28T12:16:47;15.41;74.55
75784;DHT22;64565;44.752;37.674;2022-10-28T12:19:52;15.40;75.13
75784;DHT22;64565;44.752;37.674;2022-10-28T12:22:56;15.36;73.23
75784;DHT22;64565;44.752;37.674;2022-10-28T12:25:48;15.31;75.22
75784;DHT22;64565;44.752;37.674;2022-10-28T12:28:48;15.27;74.83
75784;DHT22;64565;44.752;37.674;2022-10-28T12:31:41;15.33;75.04
75784;DHT22;64565;44.752;37.674;2022-10-28T12:37:57;15.19;73.44
75784;DHT22;64565;44.752;37.674;2022-10-28T12:41:14;15.12;73.15
75784;DHT22;64565;44.752;37.674;2022-10-28T12:44:19;15.17;73.38
75784;DHT22;64565;44.752;37.674;2022-10-28T12:56:35;15.13;73.09
75784;DHT22;64565;44.752;37.674;2022-10-28T12:59:36;15.11;73.28
75784;DHT22;64565;44.752;37.674;2022-10-28T13:02:58;15.00;74.45
75784;DHT22;64565;44.752;37.674;2022-10-28T13:08:53;14.84;73.60
75784;DHT22;64565;44.752;37.674;2022-10-28T13:15:40;14.65;75.53
75784;DHT22;64565;44.752;37.674;2022-10-28T13:31:44;14.19;75.89
75784;DHT22;64565;44.752;37.674;2022-10-28T13:34:38;14.13;76.27
75784;DHT22;64565;44.752;37.674;2022-10-28T13:37:34;14.11;76.66
75784;DHT22;64565;44.752;37.674;2022-10-28T13:50:49;13.77;77.15
75784;DHT22;64565;44.752;37.674;2022-10-28T13:57:59;13.65;78.27
75784;DHT22;64565;44.752;37.674;2022-10-28T14:00:40;13.62;77.74
75784;DHT22;64565;44.752;37.674;2022-10-28T14:03:52;13.56;77.36
75784;DHT22;64565;44.752;37.674;2022-10-28T14:10:18;13.36;79.08
75784;DHT22;64565;44.752;37.674;2022-10-28T14:13:16;13.27;78.92
75784;DHT22;64565;44.752;37.674;2022-10-28T14:16:33;13.10;78.95
75784;DHT22;64565;44.752;37.674;2022-10-28T14:22:34;12.91;80.98
75784;DHT22;64565;44.752;37.674;2022-10-28T14:31:47;12.59;82.95
75784;DHT22;64565;44.752;37.674;2022-10-28T14:52:06;12.38;86.00
75784;DHT22;64565;44.752;37.674;2022-10-28T15:12:13;12.13;86.10
75784;DHT22;64565;44.752;37.674;2022-10-28T15:18:29;12.02;86.96
75784;DHT22;64565;44.752;37.674;2022-10-28T15:48:18;11.76;88.06
75784;DHT22;64565;44.752;37.674;2022-10-28T15:51:21;11.81;88.13
75784;DHT22;64565;44.752;37.674;2022-10-28T15:54:19;11.78;88.22
75784;DHT22;64565;44.752;37.674;2022-10-28T15:57:45;11.81;88.90
75784;DHT22;64565;44.752;37.674;2022-10-28T16:03:47;11.69;87.23
75784;DHT22;64565;44.752;37.674;2022-10-28T16:06:40;11.62;87.01
75784;DHT22;64565;44.752;37.674;2022-10-28T16:09:34;11.62;87.97
75784;DHT22;64565;44.752;37.674;2022-10-28T16:12:23;11.60;88.26
75784;DHT22;64565;44.752;37.674;2022-10-28T16:15:28;11.57;87.82
75784;DHT22;64565;44.752;37.674;2022-10-28T16:36:48;11.47;89.55
75784;DHT22;64565;44.752;37.674;2022-10-28T16:39:36;11.45;89.80
75784;DHT22;64565;44.752;37.674;2022-10-28T16:42:25;11.46;89.36
75784;DHT22;64565;44.752;37.674;2022-10-28T16:45:15;11.45;89.31
75784;DHT22;64565;44.752;37.674;2022-10-28T16:58:00;11.33;89.38
75784;DHT22;64565;44.752;37.674;2022-10-28T17:01:19;11.31;89.53
75784;DHT22;64565;44.752;37.674;2022-10-28T17:04:09;11.30;89.26
75784;DHT22;64565;44.752;37.674;2022-10-28T17:06:52;11.30;89.60
75784;DHT22;64565;44.752;37.674;2022-10-28T17:09:46;11.26;88.82
75784;DHT22;64565;44.752;37.674;2022-10-28T17:12:36;11.23;88.63
75784;DHT22;64565;44.752;37.674;2022-10-28T17:15:25;11.19;88.57
75784;DHT22;64565;44.752;37.674;2022-10-28T17:18:16;11.16;88.45
75784;DHT22;64565;44.752;37.674;2022-10-28T17:28:02;11.07;89.56
75784;DHT22;64565;44.752;37.674;2022-10-28T17:31:13;11.07;91.08
75784;DHT22;64565;44.752;37.674;2022-10-28T17:34:13;11.00;91.49
75784;DHT22;64565;44.752;37.674;2022-10-28T17:37:19;10.99;92.37
75784;DHT22;64565;44.752;37.674;2022-10-28T17:43:10;10.92;93.18
75784;DHT22;64565;44.752;37.674;2022-10-28T17:49:23;10.93;93.64
75784;DHT22;64565;44.752;37.674;2022-10-28T17:52:20;10.95;93.54
75784;DHT22;64565;44.752;37.674;2022-10-28T17:58:33;10.95;93.43
75784;DHT22;64565;44.752;37.674;2022-10-28T18:04:31;10.94;93.33
75784;DHT22;64565;44.752;37.674;2022-10-28T18:07:52;10.92;93.01
75784;DHT22;64565;44.752;37.674;2022-10-28T18:11:45;10.89;93.00
75784;DHT22;64565;44.752;37.674;2022-10-28T18:14:56;10.85;92.77
75784;DHT22;64565;44.752;37.674;2022-10-28T18:24:33;10.74;93.33
75784;DHT22;64565;44.752;37.674;2022-10-28T18:27:30;10.69;93.53
75784;DHT22;64565;44.752;37.674;2022-10-28T18:30:39;10.59;93.68
75784;DHT22;64565;44.752;37.674;2022-10-28T18:39:49;10.49;94.62
75784;DHT22;64565;44.752;37.674;2022-10-28T18:44:36;10.42;94.43
75784;DHT22;64565;44.752;37.674;2022-10-28T19:25:53;10.35;94.95
75784;DHT22;64565;44.752;37.674;2022-10-28T19:38:48;10.25;93.05
75784;DHT22;64565;44.752;37.674;2022-10-28T19:41:44;10.26;92.32
75784;DHT22;64565;44.752;37.674;2022-10-28T19:44:32;10.27;92.18
75784;DHT22;64565;44.752;37.674;2022-10-28T19:51:47;10.23;90.02
75784;DHT22;64565;44.752;37.674;2022-10-28T19:57:52;10.20;85.70
75784;DHT22;64565;44.752;37.674;2022-10-28T20:00:41;10.22;85.66
75784;DHT22;64565;44.752;37.674;2022-10-28T20:03:36;10.16;85.81
75784;DHT22;64565;44.752;37.674;2022-10-28T20:10:06;10.08;86.36
75784;DHT22;64565;44.752;37.674;2022-10-28T20:29:05;9.93;88.28
75784;DHT22;64565;44.752;37.674;2022-10-28T20:41:43;9.88;88.31
75784;DHT22;64565;44.752;37.674;2022-10-28T20:44:54;9.88;87.15
75784;DHT22;64565;44.752;37.674;2022-10-28T20:54:25;9.97;87.19
75784;DHT22;64565;44.752;37.674;2022-10-28T21:45:25;9.69;95.88
75784;DHT22;64565;44.752;37.674;2022-10-28T21:58:24;9.88;93.68
75784;DHT22;64565;44.752;37.674;2022-10-28T22:01:26;9.92;93.42
75784;DHT22;64565;44.752;37.674;2022-10-28T22:07:38;10.05;94.42
75784;DHT22;64565;44.752;37.674;2022-10-28T22:10:21;10.09;94.58
75784;DHT22;64565;44.752;37.674;2022-10-28T22:19:12;10.19;94.76
75784;DHT22;64565;44.752;37.674;2022-10-28T22:25:11;10.24;94.89
75784;DHT22;64565;44.752;37.674;2022-10-28T22:31:12;10.34;94.11
75784;DHT22;64565;44.752;37.674;2022-10-28T22:34:02;10.36;93.71
75784;DHT22;64565;44.752;37.674;2022-10-28T22:40:31;10.45;92.99
75784;DHT22;64565;44.752;37.674;2022-10-28T22:43:18;10.46;92.94
75784;DHT22;64565;44.752;37.674;2022-10-28T22:52:51;10.45;93.00
75784;DHT22;64565;44.752;37.674;2022-10-28T22:55:43;10.45;93.31
75784;DHT22;64565;44.752;37.674;2022-10-28T22:58:57;10.49;93.16
75784;DHT22;64565;44.752;37.674;2022-10-28T23:15:06;10.52;93.01
75784;DHT22;64565;44.752;37.674;2022-10-28T23:18:02;10.53;92.98
75784;DHT22;64565;44.752;37.674;2022-10-28T23:24:18;10.54;92.29
75784;DHT22;64565;44.752;37.674;2022-10-28T23:27:07;10.50;92.77
75784;DHT22;64565;44.752;37.674;2022-10-28T23:48:56;10.56;92.66
75784;DHT22;64565;44.752;37.674;2022-10-28T23:51:45;10.54;92.56
75784;DHT22;64565;44.752;37.674;2022-10-28T23:54:37;10.55;92.72
75784;DHT22;64565;44.752;37.674;2022-10-28T23:57:27;10.55;92.77
